Flight Track Log - Related Links

Times and Time Zones

All times are in EDT time to prevent confusion due to time zone crossing. See the SWA1813 flight status page for this flight to view local times or setup timezone preferences in your user account.

Time Position Orientation Groundspeed Altitude Reporting Facility
EDT Latitude Longitude Course Direction KTS MPH feet Rate Location/Type
Fri 08:56:28 PM 39.1050 -76.6133 119° Southeast 171 197 3,300  Level Washington Center
Fri 08:57:27 PM 39.0764 -76.5461 119° Southeast 192 221 5,000 2,450 Climbing Washington Center
Fri 08:58:28 PM 39.0728 -76.4497 93° East 220 253 8,200 2,826 Climbing Washington Center
Fri 08:59:28 PM 39.0778 -76.3536 86° East 241 277 10,700 1,934 Climbing Washington Center
Fri 09:00:29 PM 39.1056 -76.2336 73° East 290 334 12,100 1,785 Climbing Washington Center
Fri 09:01:29 PM 39.1394 -76.1053 71° East 342 394 14,300 2,542 Climbing Washington Center
Fri 09:02:27 PM 39.1711 -75.9717 73° East 365 420 17,100 2,319 Climbing Washington Center
Fri 09:03:28 PM 39.2131 -75.8461 67° East 377 434 18,900 1,800 Climbing Washington Center
Fri 09:04:27 PM 39.2925 -75.7472 44° Northeast 377 434 20,700 1,513 Climbing Washington Center
Fri 09:05:27 PM 39.3761 -75.6481 43° Northeast 383 441 21,900 639 Climbing Washington Center
Fri 09:06:29 PM 39.4553 -75.5406 46° Northeast 400 460 22,000 800 Climbing Washington Center
Fri 09:07:27 PM 39.5364 -75.4381 44° Northeast 405 466 23,500 1,361 Climbing Washington Center
Fri 09:08:28 PM 39.6175 -75.3331 45° Northeast 405 466 24,700 1,328 Climbing Washington Center
Fri 09:09:29 PM 39.6983 -75.2194 47° Northeast 410 472 26,200 1,966 Climbing Washington Center
Fri 09:10:27 PM 39.7875 -75.0919 48° Northeast 422 486 28,600 1,814 Climbing Washington Center
Fri 09:11:38 PM 39.8939 -74.9997 34° Northeast 418 481 30,100 1,466 Climbing New York Center
Fri 09:12:38 PM 40.0117 -74.9744 North 402 463 31,800 1,475 Climbing New York Center
Fri 09:13:36 PM 40.1167 -74.9456 12° North 402 463 33,000 1,169 Climbing New York Center
Fri 09:14:36 PM 40.2242 -74.9167 12° North 395 455 34,100 1,240 Climbing New York Center
Fri 09:15:37 PM 40.3297 -74.8767 16° North 395 455 35,500 893 Climbing New York Center
Fri 09:16:37 PM 40.4311 -74.8336 18° North 390 449 35,900 694 Climbing New York Center
Fri 09:17:38 PM 40.5347 -74.7906 18° North 390 449 36,900 545 Climbing New York Center
Fri 09:18:38 PM 40.6364 -74.7419 20° North 390 449 37,000  Climbing New York Center
Fri 09:19:38 PM 40.7358 -74.7011 17° North 384 442 36,900  Descending New York Center
Fri 09:21:42 PM 40.9331 -74.6106 19° North 375 432 37,000 33 Climbing Boston Center
Fri 09:22:40 PM 41.0297 -74.5725 17° North 370 426 37,000  Level Boston Center
Fri 09:23:41 PM 41.1328 -74.5264 19° North 370 426 37,000 -150 Level Boston Center
Fri 09:24:40 PM 41.2358 -74.4800 19° North 382 440 36,700 -958 Descending Boston Center
Fri 09:25:40 PM 41.3511 -74.4367 16° North 387 445 35,100 -1,488 Descending Boston Center
Fri 09:26:41 PM 41.4353 -74.3950 20° North 370 426 33,700 -1,600 Descending Boston Center
Fri 09:27:40 PM 41.5444 -74.3511 17° North 357 411 31,900 -1,650 Descending Boston Center
Fri 09:28:41 PM 41.6269 -74.2675 37° Northeast 362 417 30,400 -1,190 Descending Boston Center
Fri 09:29:41 PM 41.6933 -74.1556 52° Northeast 368 423 29,500 -850 Descending Boston Center
Fri 09:30:41 PM 41.7661 -74.0350 51° Northeast 386 444 28,700 -793 Descending Boston Center
Fri 09:31:42 PM 41.8322 -73.9197 52° Northeast 391 450 27,900 -843 Descending Boston Center
Fri 09:32:42 PM 41.9089 -73.7958 50° Northeast 407 468 27,000 -966 Descending Boston Center
Fri 09:33:40 PM 41.9831 -73.6689 52° Northeast 420 483 26,000 -1,881 Descending Boston Center
Fri 09:34:40 PM 42.0594 -73.5475 50° Northeast 420 483 23,300 -1,537 Descending Boston Center
Fri 09:35:41 PM 42.1356 -73.4172 52° Northeast 427 491 22,900 -634 Descending Boston Center
Fri 09:36:43 PM 42.2011 -73.3061 51° Northeast 404 465 22,000 -908 Descending Boston Center
Fri 09:37:40 PM 42.2728 -73.1892 50° Northeast 392 451 21,100 -974 Descending Boston Center
Fri 09:38:40 PM 42.3403 -73.0719 52° Northeast 392 451 20,100 -934 Descending Boston Center
Fri 09:39:42 PM 42.4014 -72.9631 53° Northeast 411 473 19,200 -541 Descending Boston Center
Fri 09:40:42 PM 42.4853 -72.8286 50° Northeast 411 473 19,000 -102 Descending Boston Center
Fri 09:41:40 PM 42.5356 -72.7133 59° Northeast 400 460 19,000  Level Boston Center
Fri 09:42:40 PM 42.5836 -72.5811 64° Northeast 394 453 19,000 -700 Level Boston Center
Fri 09:43:40 PM 42.6339 -72.4428 64° Northeast 394 453 17,600 -2,083 Descending Boston Center
Fri 09:44:41 PM 42.6817 -72.3131 63° Northeast 388 447 14,800 -2,529 Descending Boston Center
Fri 09:45:41 PM 42.7169 -72.2111 65° Northeast 379 436 12,500 -2,250 Descending Boston Center
Fri 09:46:41 PM 42.7539 -72.0414 73° East 366 421 10,300 -1,765 Descending Boston Center
Fri 09:47:40 PM 42.7764 -71.9308 74° East 312 359 9,000 -1,462 Descending Boston Center
Fri 09:48:40 PM 42.7844 -71.8319 84° East 282 325 7,400 -1,884 Descending Boston Center
Fri 09:49:41 PM 42.7919 -71.7300 84° East 260 299 5,200 -1,951 Descending Boston Center
Fri 09:50:43 PM 42.7978 -71.6364 85° East 254 292 3,400 -1,613 Descending Boston Center
Fri 09:51:40 PM 42.8033 -71.5403 85° East 254 292 2,000 -712 Descending Boston Center
Fri 09:52:41 PM 42.8236 -71.4664 69° East 226 260 2,000  Level Boston Center
Fri 09:53:42 PM 42.8353 -71.4011 76° East 180 207 2,000 -300 Level Boston Center
Fri 09:54:41 PM 42.8728 -71.3975 North 132 152 1,400 -694 Descending Boston Center
Fri 09:55:43 PM 42.9064 -71.4197 334° Northwest 126 145 600 -504 Descending Boston Center
Fri 09:56:40 PM 42.9419 -71.4361 341° North 133 153 400 4,308 Descending Boston Center
Fri 09:57:40 PM 42.9775 -71.4583 335° Northwest 133 153 9,000 4,264 Climbing Boston Center
Fri 09:58:41 PM 43.0153 -71.4775 340° North 133 153 9,000  Level Boston Center
Fri 09:59:42 PM 43.0447 -71.4942 338° Northwest 133 153 9,000  Level Boston Center
Fri 10:01:00 PM 42.9328 -71.4358 163° South  Level Estimated
Fri 10:08:00 PM 42.9328 -71.4358 163° South  Level Estimated
Fri 10:09:00 PM 42.9328 -71.4358 163° South  Level Estimated
Fri 10:10:00 PM 42.9328 -71.4358 163° South  Level Estimated
Fri 10:11:00 PM 42.9328 -71.4358 163° South  Level Estimated
Fri 10:12:00 PM 42.9328 -71.4358 163° South  Level Estimated
Fri 10:13:00 PM 42.9328 -71.4358 163° South  Level Estimated

Login

Don't have an account? Register now (free) for customized features, flight alerts, and more!